Time;durP1;ratioP1;P1;durP2;ratioP2;P2;SDS_P1;SDS_P2;PMS_P1;PMS_P2;Temp;Humidity;BMP_temperature;BMP_pressure;BME280_temperature;BME280_humidity;BME280_pressure;Samples;Min_cycle;Max_cycle;Signal;HPM_P1;HPM_P2
2023/09/07 00:01:47;;;;;;;5.60;3.37;;;20.60;31.70;;;;;;10421103;28;21013;-73
2023/09/07 00:06:50;;;;;;;3.73;3.43;;;20.50;32.00;;;;;;10421746;28;20303;-73
2023/09/07 00:11:54;;;;;;;3.87;3.57;;;20.40;31.80;;;;;;10418790;28;20233;-73
2023/09/07 00:16:58;;;;;;;4.07;3.73;;;20.30;31.90;;;;;;10422253;28;20225;-73
2023/09/07 00:22:02;;;;;;;3.80;3.50;;;20.20;32.50;;;;;;10416749;28;20221;-73
2023/09/07 00:27:07;;;;;;;3.47;3.27;;;20.10;32.00;;;;;;10421091;28;20217;-73
2023/09/07 00:32:12;;;;;;;3.90;3.70;;;20.00;32.40;;;;;;10413602;28;20244;-73
2023/09/07 00:37:15;;;;;;;3.90;3.60;;;19.90;33.10;;;;;;10418862;28;20233;-73
2023/09/07 00:42:18;;;;;;;4.43;3.40;;;19.90;32.70;;;;;;10412705;28;20229;-73
2023/09/07 00:47:23;;;;;;;3.70;3.50;;;19.80;32.50;;;;;;10417261;28;21104;-73
2023/09/07 00:52:28;;;;;;;3.77;3.50;;;19.80;33.20;;;;;;10418292;28;20225;-73
2023/09/07 00:57:31;;;;;;;3.97;3.67;;;19.90;32.90;;;;;;10422188;28;20225;-73
2023/09/07 01:02:36;;;;;;;3.90;3.60;;;19.80;32.80;;;;;;10412427;28;20232;-73
2023/09/07 01:07:47;;;;;;;4.27;3.97;;;19.80;33.20;;;;;;10415512;28;20237;-73
2023/09/07 01:12:50;;;;;;;3.40;3.20;;;19.70;33.70;;;;;;10411257;28;20218;-73
2023/09/07 01:17:56;;;;;;;4.77;4.23;;;19.60;32.70;;;;;;10420840;28;20359;-73
2023/09/07 01:23:17;;;;;;;4.37;4.03;;;19.60;33.40;;;;;;10418564;28;20217;-74
2023/09/07 01:28:21;;;;;;;3.67;3.47;;;19.50;33.30;;;;;;10413679;28;20308;-73
2023/09/07 01:33:24;;;;;;;3.87;3.63;;;19.40;33.00;;;;;;10424653;28;20224;-74
2023/09/07 01:38:29;;;;;;;3.53;3.33;;;19.40;33.10;;;;;;10415271;28;20233;-73
2023/09/07 01:43:34;;;;;;;3.23;3.03;;;19.40;33.60;;;;;;10413472;28;20229;-74
2023/09/07 01:48:37;;;;;;;4.13;3.83;;;19.40;33.30;;;;;;10417958;28;20224;-73
2023/09/07 01:53:41;;;;;;;3.80;3.50;;;19.30;33.30;;;;;;10414640;28;20225;-73
2023/09/07 01:58:45;;;;;;;3.80;3.50;;;19.30;33.70;;;;;;10412663;28;20233;-74
2023/09/07 02:03:48;;;;;;;3.80;3.50;;;19.20;33.40;;;;;;10415893;28;20800;-73
2023/09/07 02:08:52;;;;;;;3.50;3.30;;;19.20;33.50;;;;;;10415718;28;20226;-73
2023/09/07 02:13:55;;;;;;;3.93;3.63;;;19.20;33.80;;;;;;10416007;28;20229;-77
2023/09/07 02:19:04;;;;;;;3.40;3.10;;;19.20;33.60;;;;;;10415696;28;20228;-73
2023/09/07 02:24:09;;;;;;;4.33;3.73;;;19.20;34.20;;;;;;10418155;28;20245;-73
2023/09/07 02:29:12;;;;;;;4.23;3.63;;;19.10;33.90;;;;;;10415363;28;20241;-73
2023/09/07 02:34:16;;;;;;;4.10;3.80;;;19.00;33.40;;;;;;10408303;28;20291;-74
2023/09/07 02:39:20;;;;;;;3.67;3.37;;;19.00;33.40;;;;;;10411138;28;20324;-73
2023/09/07 02:44:23;;;;;;;3.90;3.60;;;18.90;33.80;;;;;;10413024;28;20240;-73
2023/09/07 02:49:26;;;;;;;3.80;3.50;;;18.80;33.60;;;;;;10414531;28;20231;-73
2023/09/07 02:54:31;;;;;;;3.40;3.20;;;18.70;33.60;;;;;;10410028;28;20243;-73
2023/09/07 02:59:34;;;;;;;3.43;3.23;;;18.70;34.10;;;;;;10410554;28;20229;-73
2023/09/07 03:04:37;;;;;;;3.60;3.40;;;18.60;33.80;;;;;;10410802;28;20315;-73
2023/09/07 03:09:44;;;;;;;4.10;3.80;;;18.60;34.00;;;;;;10414452;28;20229;-73
2023/09/07 03:14:48;;;;;;;4.07;3.60;;;18.60;34.60;;;;;;10418154;28;20305;-73
2023/09/07 03:19:51;;;;;;;3.90;3.60;;;18.50;33.90;;;;;;10412947;28;20721;-73
2023/09/07 03:24:56;;;;;;;4.13;3.73;;;18.40;33.90;;;;;;10409530;28;20236;-73
2023/09/07 03:29:59;;;;;;;3.87;3.57;;;18.30;34.70;;;;;;10414232;28;20765;-73
2023/09/07 03:35:06;;;;;;;3.40;3.20;;;18.30;34.40;;;;;;10413758;28;20217;-73
2023/09/07 03:40:11;;;;;;;3.97;3.67;;;18.20;34.90;;;;;;10413404;28;20225;-73
2023/09/07 03:45:15;;;;;;;4.00;3.70;;;18.20;34.90;;;;;;10419487;28;20245;-74
2023/09/07 03:50:18;;;;;;;4.07;3.67;;;18.20;34.40;;;;;;10418979;28;20234;-71
2023/09/07 03:55:23;;;;;;;3.53;3.10;;;18.20;34.50;;;;;;10420540;28;20239;-74
2023/09/07 04:00:26;;;;;;;3.80;3.40;;;18.20;34.90;;;;;;10424648;28;20229;-73
2023/09/07 04:05:29;;;;;;;3.00;2.80;;;18.10;34.40;;;;;;10418733;28;20249;-73
2023/09/07 04:10:37;;;;;;;2.90;2.70;;;18.10;34.40;;;;;;10422177;28;20241;-73
2023/09/07 04:15:43;;;;;;;3.30;3.10;;;18.00;34.70;;;;;;10426281;28;20229;-74
2023/09/07 04:20:47;;;;;;;3.80;3.07;;;18.00;34.70;;;;;;10420635;28;20779;-73
2023/09/07 04:25:52;;;;;;;3.30;3.00;;;17.90;34.70;;;;;;10419439;28;20225;-73
2023/09/07 04:30:55;;;;;;;3.43;3.17;;;17.80;34.60;;;;;;10415197;28;20600;-73
2023/09/07 04:35:59;;;;;;;3.53;3.23;;;17.70;34.50;;;;;;10415118;28;20822;-73
2023/09/07 04:41:08;;;;;;;3.10;2.90;;;17.60;34.40;;;;;;10421567;28;20236;-73
2023/09/07 04:46:12;;;;;;;3.90;3.50;;;17.60;35.20;;;;;;10416780;28;20233;-73
2023/09/07 04:51:15;;;;;;;4.63;2.73;;;17.50;34.30;;;;;;10415167;28;20237;-73
2023/09/07 04:56:21;;;;;;;3.50;3.20;;;17.50;34.30;;;;;;10412221;28;20217;-73
2023/09/07 05:01:25;;;;;;;3.73;3.40;;;17.40;34.50;;;;;;10418715;28;20853;-73
2023/09/07 05:06:29;;;;;;;3.30;3.10;;;17.40;34.30;;;;;;10420381;28;20621;-73
2023/09/07 05:11:34;;;;;;;3.33;3.13;;;17.30;34.60;;;;;;10416226;28;20728;-73
2023/09/07 05:16:37;;;;;;;3.20;3.00;;;17.30;35.10;;;;;;10416127;28;20221;-74
2023/09/07 05:21:41;;;;;;;3.10;2.83;;;17.30;34.70;;;;;;10418463;28;20233;-73
2023/09/07 05:26:45;;;;;;;5.43;3.90;;;17.30;35.00;;;;;;10414524;28;20234;-73
2023/09/07 05:31:48;;;;;;;3.60;3.40;;;17.30;35.60;;;;;;10417365;28;20220;-73
2023/09/07 05:36:52;;;;;;;3.97;3.67;;;17.30;35.20;;;;;;10415948;28;20224;-75
2023/09/07 05:41:56;;;;;;;4.40;3.33;;;17.30;35.40;;;;;;10410572;28;20784;-75
2023/09/07 05:47:02;;;;;;;5.03;4.30;;;17.20;36.10;;;;;;10419899;28;20590;-74
2023/09/07 05:52:06;;;;;;;3.80;3.50;;;17.20;36.10;;;;;;10412878;28;20584;-75
2023/09/07 05:57:13;;;;;;;6.33;3.90;;;17.30;36.30;;;;;;10421424;28;20230;-75
2023/09/07 06:02:16;;;;;;;4.30;3.90;;;17.30;37.50;;;;;;10427267;28;21144;-75
2023/09/07 06:07:19;;;;;;;6.47;4.77;;;17.40;36.70;;;;;;10414911;28;20605;-74
2023/09/07 06:12:24;;;;;;;7.40;5.60;;;17.40;37.00;;;;;;10406989;28;20232;-74
2023/09/07 06:17:27;;;;;;;7.10;6.00;;;17.50;37.60;;;;;;10428018;28;20306;-74
2023/09/07 06:22:31;;;;;;;6.80;6.20;;;17.50;37.20;;;;;;10413458;28;20229;-73
2023/09/07 06:27:35;;;;;;;6.53;6.00;;;17.60;37.40;;;;;;10407987;28;20224;-73
2023/09/07 06:32:40;;;;;;;7.67;6.97;;;17.70;38.50;;;;;;10422381;28;20710;-72
2023/09/07 06:37:43;;;;;;;7.43;6.83;;;17.80;38.10;;;;;;10410920;28;20256;-73
2023/09/07 06:42:48;;;;;;;8.03;7.43;;;17.90;38.20;;;;;;10414386;28;20316;-73
2023/09/07 06:47:51;;;;;;;7.77;7.17;;;18.00;39.10;;;;;;10416664;28;20246;-73
2023/09/07 06:52:56;;;;;;;8.20;7.50;;;18.10;38.80;;;;;;10415632;28;20221;-73
2023/09/07 06:58:01;;;;;;;7.93;7.20;;;18.20;39.70;;;;;;10410349;28;20234;-72
2023/09/07 07:03:05;;;;;;;7.67;7.07;;;18.30;40.20;;;;;;10413356;28;20226;-72
2023/09/07 07:08:09;;;;;;;8.00;7.30;;;18.40;39.70;;;;;;10407447;28;20238;-74
2023/09/07 07:13:13;;;;;;;6.83;6.23;;;18.60;39.80;;;;;;10421014;28;20229;-74
2023/09/07 07:18:16;;;;;;;7.50;6.90;;;18.70;40.50;;;;;;10411822;28;20241;-74
2023/09/07 07:23:20;;;;;;;6.47;5.97;;;18.90;40.20;;;;;;10421316;28;20229;-73
2023/09/07 07:28:24;;;;;;;6.67;5.70;;;19.10;40.40;;;;;;10419571;28;21372;-73
2023/09/07 07:33:27;;;;;;;6.10;5.60;;;19.30;41.00;;;;;;10426300;28;20231;-74
2023/09/07 07:38:31;;;;;;;6.07;5.57;;;19.50;40.30;;;;;;10413468;28;20234;-74
2023/09/07 07:43:35;;;;;;;5.53;5.10;;;19.70;40.50;;;;;;10422586;28;20275;-75
2023/09/07 07:48:39;;;;;;;4.90;4.50;;;20.00;41.30;;;;;;10423056;28;20237;-75
2023/09/07 07:53:42;;;;;;;5.33;4.00;;;20.20;41.10;;;;;;10422742;28;20656;-76
2023/09/07 07:58:47;;;;;;;4.40;4.10;;;20.60;40.40;;;;;;10419943;28;20237;-75
2023/09/07 08:03:50;;;;;;;3.90;3.60;;;21.00;40.60;;;;;;10429323;28;20312;-74
2023/09/07 08:08:53;;;;;;;3.60;3.37;;;21.40;39.70;;;;;;10417115;28;20316;-74
2023/09/07 08:13:58;;;;;;;3.97;3.67;;;21.80;39.40;;;;;;10427464;28;20736;-74
2023/09/07 08:19:03;;;;;;;3.70;3.40;;;22.20;39.10;;;;;;10424518;28;20372;-74
2023/09/07 08:24:07;;;;;;;4.10;3.70;;;22.60;38.80;;;;;;10418530;28;20225;-73
2023/09/07 08:29:11;;;;;;;3.77;3.47;;;23.00;38.30;;;;;;10415168;28;20331;-74
2023/09/07 08:34:15;;;;;;;3.60;3.37;;;23.30;37.70;;;;;;10412455;28;20252;-74
2023/09/07 08:39:22;;;;;;;3.67;3.37;;;23.60;36.90;;;;;;10413687;28;20237;-74
2023/09/07 08:44:28;;;;;;;3.80;3.50;;;23.90;36.80;;;;;;10421535;28;20235;-73
2023/09/07 08:49:33;;;;;;;4.30;3.57;;;24.20;36.30;;;;;;10414740;28;20233;-73
2023/09/07 08:54:38;;;;;;;3.33;3.00;;;24.40;36.10;;;;;;10413145;28;20671;-74
2023/09/07 08:59:43;;;;;;;3.87;3.43;;;24.70;35.70;;;;;;10418096;28;20320;-74
2023/09/07 09:04:46;;;;;;;3.60;3.30;;;24.90;34.70;;;;;;10419170;28;20240;-74
2023/09/07 09:09:49;;;;;;;3.63;3.43;;;25.20;35.10;;;;;;10416668;28;20236;-74
2023/09/07 09:14:55;;;;;;;3.60;3.40;;;25.40;34.80;;;;;;10411296;28;20233;-74
2023/09/07 09:19:58;;;;;;;3.87;3.57;;;25.60;33.40;;;;;;10431092;28;20317;-74
2023/09/07 09:25:05;;;;;;;5.73;3.63;;;25.80;33.90;;;;;;10429710;28;20212;-74
2023/09/07 09:30:11;;;;;;;3.80;3.37;;;25.90;32.90;;;;;;10412076;28;20238;-75
2023/09/07 09:35:17;;;;;;;3.70;3.40;;;26.20;33.30;;;;;;10416066;28;20801;-74
2023/09/07 09:40:21;;;;;;;3.33;3.03;;;26.40;32.90;;;;;;10412680;28;20770;-75
2023/09/07 09:45:28;;;;;;;3.63;3.33;;;26.60;33.10;;;;;;10413110;28;20311;-74
2023/09/07 09:50:33;;;;;;;3.63;3.33;;;26.90;31.70;;;;;;10423895;28;20237;-74
2023/09/07 09:55:36;;;;;;;3.20;3.00;;;27.10;32.10;;;;;;10414029;28;20230;-74
2023/09/07 10:00:43;;;;;;;3.80;3.50;;;27.20;31.90;;;;;;10421942;28;20230;-74
2023/09/07 10:05:46;;;;;;;3.90;3.50;;;27.50;30.80;;;;;;10409079;28;20857;-73
2023/09/07 10:10:54;;;;;;;4.00;3.70;;;27.60;31.30;;;;;;10414648;28;20859;-73
2023/09/07 10:16:04;;;;;;;3.67;3.37;;;27.80;30.50;;;;;;10419365;28;20298;-73
2023/09/07 10:21:07;;;;;;;3.80;3.20;;;28.00;29.60;;;;;;10413411;28;20232;-73
2023/09/07 10:26:12;;;;;;;3.67;3.37;;;28.10;30.30;;;;;;10413268;28;20835;-73
2023/09/07 10:31:19;;;;;;;3.20;3.00;;;28.30;29.50;;;;;;10415999;28;20228;-74
2023/09/07 10:36:23;;;;;;;3.40;3.20;;;28.40;28.90;;;;;;10415962;28;20321;-73
2023/09/07 10:41:26;;;;;;;3.70;3.40;;;28.50;29.30;;;;;;10420498;28;20638;-73
2023/09/07 10:46:30;;;;;;;3.60;3.40;;;28.60;28.60;;;;;;10413508;28;20235;-73
2023/09/07 10:51:33;;;;;;;3.50;3.30;;;28.70;27.90;;;;;;10413582;28;20884;-73
2023/09/07 10:56:37;;;;;;;3.50;3.30;;;28.80;28.80;;;;;;10416057;28;20255;-73
2023/09/07 11:01:41;;;;;;;3.47;3.27;;;28.90;28.60;;;;;;10431404;28;20224;-73
2023/09/07 11:06:45;;;;;;;3.33;3.13;;;29.00;27.90;;;;;;10421072;28;20706;-73
2023/09/07 11:11:48;;;;;;;3.83;3.40;;;29.10;28.10;;;;;;10419668;28;20228;-74
2023/09/07 11:16:56;;;;;;;4.83;3.40;;;29.10;28.10;;;;;;10418600;28;20224;-73
2023/09/07 11:21:59;;;;;;;3.57;3.27;;;29.10;26.50;;;;;;10421408;28;20267;-74
2023/09/07 11:27:03;;;;;;;3.87;3.57;;;29.20;27.90;;;;;;10430852;28;20694;-74
2023/09/07 11:32:09;;;;;;;3.40;3.20;;;29.20;27.70;;;;;;10430376;28;20225;-74
2023/09/07 11:37:13;;;;;;;3.63;3.30;;;29.30;27.30;;;;;;10425938;28;20225;-74
2023/09/07 11:42:16;;;;;;;3.80;3.50;;;29.40;27.60;;;;;;10416501;28;20233;-74
2023/09/07 11:47:21;;;;;;;3.47;3.27;;;29.40;27.10;;;;;;10423697;28;20233;-74
2023/09/07 11:52:24;;;;;;;3.73;3.43;;;29.40;26.70;;;;;;10423030;28;20307;-74
2023/09/07 11:57:27;;;;;;;3.60;3.40;;;29.50;27.00;;;;;;10422081;28;20662;-74
2023/09/07 12:02:32;;;;;;;3.60;3.30;;;29.40;26.40;;;;;;10421643;28;20236;-74
2023/09/07 12:07:35;;;;;;;3.83;3.03;;;29.40;25.90;;;;;;10418206;28;20234;-73
2023/09/07 12:12:39;;;;;;;3.80;3.57;;;29.40;26.70;;;;;;10418694;28;20221;-73
2023/09/07 12:17:43;;;;;;;3.70;3.33;;;29.40;26.30;;;;;;10418211;28;20236;-72
2023/09/07 12:22:48;;;;;;;3.63;3.33;;;29.50;25.80;;;;;;10418900;28;20325;-72
2023/09/07 12:27:52;;;;;;;3.80;3.50;;;29.50;26.00;;;;;;10419932;28;20253;-72
2023/09/07 12:32:58;;;;;;;3.50;3.30;;;29.50;25.90;;;;;;10415701;28;20267;-73
2023/09/07 12:38:03;;;;;;;3.47;3.27;;;29.50;25.20;;;;;;10419693;28;20244;-74
2023/09/07 12:43:07;;;;;;;3.60;3.23;;;29.50;25.30;;;;;;10417708;28;20222;-72
2023/09/07 12:48:11;;;;;;;3.17;2.97;;;29.50;24.70;;;;;;10420172;28;20237;-73
2023/09/07 12:53:15;;;;;;;3.30;3.00;;;29.50;23.80;;;;;;10420872;28;20237;-72
2023/09/07 12:58:19;;;;;;;4.03;3.40;;;29.50;24.20;;;;;;10418538;28;20604;-72
2023/09/07 13:03:24;;;;;;;3.43;3.13;;;29.50;24.00;;;;;;10421695;28;20249;-73
2023/09/07 13:08:29;;;;;;;3.43;3.23;;;29.50;23.50;;;;;;10419106;28;20228;-73
2023/09/07 13:13:32;;;;;;;3.37;3.17;;;29.50;24.10;;;;;;10416293;28;20304;-73
2023/09/07 13:18:37;;;;;;;3.33;3.13;;;29.50;24.30;;;;;;10422737;28;21095;-74
2023/09/07 13:23:41;;;;;;;3.33;3.07;;;29.50;24.10;;;;;;10410568;28;20276;-73
2023/09/07 13:28:44;;;;;;;3.63;3.40;;;29.60;24.10;;;;;;10409778;28;20225;-73
2023/09/07 13:33:50;;;;;;;4.40;3.30;;;29.70;24.00;;;;;;10410564;28;20316;-73
2023/09/07 13:38:56;;;;;;;3.27;3.00;;;29.70;23.30;;;;;;10421199;28;20729;-72
2023/09/07 13:44:00;;;;;;;3.10;2.90;;;29.80;23.80;;;;;;10427247;28;20213;-73
2023/09/07 13:49:04;;;;;;;3.40;3.20;;;29.80;23.80;;;;;;10427047;28;20221;-73
2023/09/07 13:54:08;;;;;;;3.20;3.00;;;29.90;23.50;;;;;;10412523;28;20227;-73
2023/09/07 13:59:12;;;;;;;3.40;3.20;;;29.90;23.70;;;;;;10416973;28;20238;-73
2023/09/07 14:04:16;;;;;;;4.17;3.40;;;29.90;23.50;;;;;;10421091;28;20323;-73
2023/09/07 14:09:23;;;;;;;3.77;3.47;;;29.90;23.30;;;;;;10414183;28;20259;-73
2023/09/07 14:14:26;;;;;;;3.73;3.37;;;30.00;23.50;;;;;;10413296;28;20308;-73
2023/09/07 14:19:31;;;;;;;3.40;3.20;;;30.00;23.30;;;;;;10415376;28;20759;-72
2023/09/07 14:24:34;;;;;;;3.67;3.17;;;30.00;23.10;;;;;;10434052;28;20739;-73
2023/09/07 14:29:37;;;;;;;3.63;3.27;;;30.10;23.50;;;;;;10422846;28;20658;-74
2023/09/07 14:34:43;;;;;;;3.30;3.10;;;30.10;23.10;;;;;;10404375;28;20312;-73
2023/09/07 14:39:49;;;;;;;3.37;3.17;;;30.10;22.50;;;;;;10412346;28;20225;-72
2023/09/07 14:44:53;;;;;;;3.37;3.17;;;30.20;22.80;;;;;;10421030;28;20299;-73
2023/09/07 14:49:58;;;;;;;3.90;3.57;;;30.20;22.70;;;;;;10424316;28;20257;-74
2023/09/07 14:55:01;;;;;;;4.40;3.87;;;30.20;22.20;;;;;;10407072;28;20690;-73
2023/09/07 15:00:05;;;;;;;3.43;3.13;;;30.20;22.40;;;;;;10410616;28;20642;-73
2023/09/07 15:05:10;;;;;;;3.73;3.43;;;30.20;22.50;;;;;;10411380;28;20233;-73
2023/09/07 15:10:13;;;;;;;3.80;3.50;;;30.20;21.90;;;;;;10423093;28;20288;-73
2023/09/07 15:15:16;;;;;;;4.03;3.37;;;30.30;22.20;;;;;;10419720;28;20827;-74
2023/09/07 15:20:22;;;;;;;3.57;3.27;;;30.30;22.20;;;;;;10422355;28;20243;-74
2023/09/07 15:25:26;;;;;;;4.20;3.30;;;30.20;22.00;;;;;;10421195;28;20217;-76
2023/09/07 15:30:29;;;;;;;3.20;3.00;;;30.30;22.10;;;;;;10425032;28;20699;-75
2023/09/07 15:35:34;;;;;;;5.40;3.30;;;30.30;22.10;;;;;;10415228;28;20225;-75
2023/09/07 15:40:38;;;;;;;3.43;3.23;;;30.30;21.90;;;;;;10417132;28;20231;-74
2023/09/07 15:45:41;;;;;;;3.47;3.20;;;30.30;22.10;;;;;;10423004;28;20627;-74
2023/09/07 15:50:46;;;;;;;3.40;3.20;;;30.30;21.90;;;;;;10435132;28;20229;-74
2023/09/07 15:55:49;;;;;;;3.40;3.20;;;30.30;21.50;;;;;;10425594;28;20228;-74
2023/09/07 16:00:52;;;;;;;3.57;3.27;;;30.30;21.90;;;;;;10431103;28;20256;-74
2023/09/07 16:05:57;;;;;;;3.23;3.03;;;30.30;22.00;;;;;;10418056;28;20261;-74
2023/09/07 16:11:01;;;;;;;3.20;2.90;;;30.40;22.00;;;;;;10428038;28;20249;-73
2023/09/07 16:16:04;;;;;;;3.37;3.07;;;30.40;21.90;;;;;;10434843;28;20212;-74
2023/09/07 16:21:14;;;;;;;3.30;3.10;;;30.40;22.10;;;;;;10418880;28;20229;-74
2023/09/07 16:26:19;;;;;;;3.23;3.03;;;30.40;21.60;;;;;;10414326;28;20225;-74
2023/09/07 16:31:22;;;;;;;4.47;3.10;;;30.50;22.20;;;;;;10419400;28;20316;-74
2023/09/07 16:36:26;;;;;;;3.40;3.10;;;30.50;21.90;;;;;;10420538;28;20221;-74
2023/09/07 16:41:30;;;;;;;4.20;3.80;;;30.50;21.60;;;;;;10422531;28;20306;-74
2023/09/07 16:46:33;;;;;;;4.10;3.70;;;30.50;22.00;;;;;;10415781;28;20411;-74
2023/09/07 16:51:37;;;;;;;3.90;3.60;;;30.50;22.00;;;;;;10418448;28;20247;-74
2023/09/07 16:56:41;;;;;;;3.80;3.23;;;30.50;21.90;;;;;;10413566;28;20324;-73
2023/09/07 17:01:44;;;;;;;3.87;3.57;;;30.60;22.20;;;;;;10422301;28;20304;-73
2023/09/07 17:06:49;;;;;;;4.03;3.70;;;30.60;22.40;;;;;;10426734;28;20258;-74
2023/09/07 17:12:08;;;;;;;4.93;3.57;;;30.60;22.60;;;;;;10422829;28;20221;-73
2023/09/07 17:17:11;;;;;;;4.70;4.40;;;30.50;22.80;;;;;;10413630;28;20324;-74
2023/09/07 17:22:16;;;;;;;4.73;4.30;;;30.40;23.00;;;;;;10424844;28;20299;-74
2023/09/07 17:27:19;;;;;;;5.30;4.90;;;30.40;23.20;;;;;;10412695;28;20229;-73
2023/09/07 17:32:23;;;;;;;4.73;4.33;;;30.30;23.30;;;;;;10417516;28;20543;-71
2023/09/07 17:37:29;;;;;;;4.40;4.00;;;30.20;23.50;;;;;;10421775;28;20229;-72
2023/09/07 17:42:32;;;;;;;4.43;4.13;;;30.10;23.70;;;;;;10411927;28;20228;-72
2023/09/07 17:47:35;;;;;;;4.90;4.00;;;30.10;23.80;;;;;;10429829;28;20228;-72
2023/09/07 17:52:40;;;;;;;4.53;4.13;;;29.90;24.00;;;;;;10422209;28;20233;-72
2023/09/07 17:57:43;;;;;;;4.93;4.40;;;29.80;24.20;;;;;;10408784;28;20665;-72
2023/09/07 18:02:48;;;;;;;4.33;4.03;;;29.70;24.10;;;;;;10426820;28;20222;-72
2023/09/07 18:07:53;;;;;;;6.87;4.30;;;29.50;24.20;;;;;;10416336;28;20247;-72
2023/09/07 18:12:58;;;;;;;4.80;4.40;;;29.30;24.60;;;;;;10421580;28;20224;-72
2023/09/07 18:18:01;;;;;;;5.20;4.33;;;29.20;24.70;;;;;;10429609;28;20752;-72
2023/09/07 18:23:06;;;;;;;4.40;4.10;;;29.10;24.80;;;;;;10396215;28;20712;-72
2023/09/07 18:28:10;;;;;;;4.60;3.97;;;28.90;25.00;;;;;;10414398;28;20230;-73
2023/09/07 18:33:13;;;;;;;4.63;4.23;;;28.70;25.00;;;;;;10411013;28;20657;-73
2023/09/07 18:38:18;;;;;;;4.50;4.10;;;28.60;25.10;;;;;;10412319;28;20228;-72
2023/09/07 18:43:22;;;;;;;5.30;4.23;;;28.40;25.20;;;;;;10416523;28;20229;-72
2023/09/07 18:48:25;;;;;;;4.20;3.63;;;28.20;25.30;;;;;;10410064;28;20229;-73
2023/09/07 18:53:29;;;;;;;5.27;4.33;;;28.00;25.50;;;;;;10414103;28;20225;-73
2023/09/07 18:58:33;;;;;;;4.87;4.47;;;27.80;25.80;;;;;;10408680;28;20698;-73
2023/09/07 19:03:37;;;;;;;4.60;4.10;;;27.60;25.90;;;;;;10413117;28;20229;-73
2023/09/07 19:08:42;;;;;;;4.70;4.30;;;27.50;26.00;;;;;;10404925;28;20536;-73
2023/09/07 19:13:45;;;;;;;4.53;4.23;;;27.40;26.40;;;;;;10414365;28;20295;-74
2023/09/07 19:18:49;;;;;;;4.70;4.30;;;27.30;26.30;;;;;;10415375;28;20256;-73
2023/09/07 19:23:53;;;;;;;4.77;4.17;;;27.20;26.40;;;;;;10410773;28;20221;-73
2023/09/07 19:28:57;;;;;;;4.87;4.27;;;27.10;26.60;;;;;;10416245;28;20221;-74
2023/09/07 19:34:00;;;;;;;5.33;4.77;;;27.00;26.50;;;;;;10423229;28;20217;-73
2023/09/07 19:39:05;;;;;;;5.20;4.70;;;26.90;26.70;;;;;;10415467;28;20221;-72
2023/09/07 19:44:09;;;;;;;5.33;4.90;;;26.70;27.00;;;;;;10425066;28;20253;-72
2023/09/07 19:49:14;;;;;;;5.23;4.73;;;26.50;26.70;;;;;;10418510;28;20255;-72
2023/09/07 19:54:19;;;;;;;5.33;4.93;;;26.30;26.90;;;;;;10436830;28;20335;-72
2023/09/07 19:59:22;;;;;;;5.10;4.70;;;26.00;27.30;;;;;;10422322;28;20292;-72
2023/09/07 20:04:26;;;;;;;5.93;5.43;;;25.80;27.40;;;;;;10427431;28;20305;-72
2023/09/07 20:09:31;;;;;;;5.87;5.37;;;25.70;27.80;;;;;;10431153;28;20231;-72
2023/09/07 20:14:34;;;;;;;5.70;5.17;;;25.60;28.20;;;;;;10428103;28;20220;-72
2023/09/07 20:19:43;;;;;;;5.50;5.10;;;25.50;28.00;;;;;;10432189;28;20304;-72
2023/09/07 20:24:48;;;;;;;5.53;5.13;;;25.40;28.90;;;;;;10447226;28;20727;-72
2023/09/07 20:29:51;;;;;;;5.87;5.37;;;25.30;28.50;;;;;;10419904;28;20322;-72
2023/09/07 20:34:54;;;;;;;5.83;5.43;;;25.20;28.20;;;;;;10430638;28;20218;-72
2023/09/07 20:39:59;;;;;;;6.30;5.70;;;25.20;28.10;;;;;;10418885;28;20229;-73
2023/09/07 20:45:03;;;;;;;5.60;5.10;;;25.00;28.50;;;;;;10444220;28;20234;-73
2023/09/07 20:50:07;;;;;;;5.63;5.23;;;24.90;28.20;;;;;;10422693;28;20236;-73
2023/09/07 20:55:12;;;;;;;5.97;5.47;;;24.60;28.40;;;;;;10425134;28;20720;-73
2023/09/07 21:00:17;;;;;;;6.50;5.63;;;24.30;28.50;;;;;;10428549;28;20233;-73
2023/09/07 21:05:21;;;;;;;5.67;5.17;;;24.20;28.40;;;;;;10424952;28;20233;-73
2023/09/07 21:10:26;;;;;;;5.60;5.10;;;24.10;28.50;;;;;;10408169;28;20240;-73
2023/09/07 21:15:29;;;;;;;6.27;5.77;;;23.90;29.40;;;;;;10429212;28;20225;-73
2023/09/07 21:20:33;;;;;;;5.57;5.13;;;23.80;28.70;;;;;;10422749;28;20237;-73
2023/09/07 21:25:38;;;;;;;7.00;6.40;;;23.70;28.60;;;;;;10418137;28;20225;-73
2023/09/07 21:30:41;;;;;;;6.37;5.83;;;23.60;29.20;;;;;;10417591;28;20221;-73
2023/09/07 21:35:44;;;;;;;6.27;5.77;;;23.40;29.00;;;;;;10423051;28;20224;-73
2023/09/07 21:40:52;;;;;;;5.53;5.13;;;23.20;29.20;;;;;;10414511;28;20720;-73
2023/09/07 21:45:56;;;;;;;5.57;5.10;;;23.10;30.00;;;;;;10420960;28;20225;-73
2023/09/07 21:50:59;;;;;;;6.70;6.10;;;22.90;29.40;;;;;;10422488;28;20252;-73
2023/09/07 21:56:04;;;;;;;6.13;5.53;;;22.80;29.60;;;;;;10430874;28;20219;-73
2023/09/07 22:01:07;;;;;;;6.37;5.73;;;22.50;30.00;;;;;;10426051;28;20783;-73
2023/09/07 22:06:11;;;;;;;6.60;6.00;;;22.40;30.00;;;;;;10423971;28;20229;-73
2023/09/07 22:11:15;;;;;;;6.40;5.80;;;22.20;30.10;;;;;;10418700;28;20229;-73
2023/09/07 22:16:19;;;;;;;5.80;5.30;;;22.00;30.80;;;;;;10412303;28;20228;-73
2023/09/07 22:21:24;;;;;;;5.73;5.20;;;21.90;30.40;;;;;;10417370;28;20243;-73
2023/09/07 22:26:28;;;;;;;5.37;4.97;;;21.90;30.40;;;;;;10419354;28;20225;-73
2023/09/07 22:31:32;;;;;;;5.47;4.97;;;21.90;30.90;;;;;;10409833;28;20232;-73
2023/09/07 22:36:35;;;;;;;8.07;6.17;;;21.80;30.60;;;;;;10430268;28;20275;-73
2023/09/07 22:41:40;;;;;;;6.60;6.00;;;21.80;30.50;;;;;;10420862;28;20229;-73
2023/09/07 22:46:44;;;;;;;6.23;5.73;;;21.80;31.00;;;;;;10427526;28;20221;-73
2023/09/07 22:51:48;;;;;;;6.03;5.53;;;21.70;30.50;;;;;;10424167;28;20760;-73
2023/09/07 22:56:52;;;;;;;5.33;4.93;;;21.70;30.70;;;;;;10428878;28;20225;-73
2023/09/07 23:01:56;;;;;;;5.63;5.23;;;21.60;30.90;;;;;;10440204;28;20225;-73
2023/09/07 23:07:00;;;;;;;6.57;5.87;;;21.50;30.80;;;;;;10427612;28;20217;-73
2023/09/07 23:12:05;;;;;;;6.40;5.90;;;21.40;30.90;;;;;;10439049;28;20231;-73
2023/09/07 23:17:08;;;;;;;6.13;5.60;;;21.30;31.50;;;;;;10432527;28;20224;-73
2023/09/07 23:22:12;;;;;;;6.67;6.10;;;21.30;31.00;;;;;;10449048;28;20587;-73
2023/09/07 23:27:16;;;;;;;5.90;5.40;;;21.30;31.10;;;;;;10423629;28;20225;-73
2023/09/07 23:32:19;;;;;;;5.70;5.30;;;21.20;31.40;;;;;;10439307;28;20636;-73
2023/09/07 23:37:23;;;;;;;6.43;5.40;;;21.10;31.10;;;;;;10430838;28;20229;-73
2023/09/07 23:42:28;;;;;;;6.47;5.93;;;21.10;31.20;;;;;;10436451;28;20779;-73
2023/09/07 23:47:31;;;;;;;5.67;5.23;;;21.00;31.60;;;;;;10435561;28;20736;-73
2023/09/07 23:52:34;;;;;;;6.77;6.17;;;20.90;31.40;;;;;;10422587;28;20236;-74
2023/09/07 23:57:39;;;;;;;5.80;5.20;;;20.80;31.50;;;;;;10440522;28;20228;-73
